Time;durP1;ratioP1;P1;durP2;ratioP2;P2;SDS_P1;SDS_P2;PMS_P1;PMS_P2;Temp;Humidity;BMP_temperature;BMP_pressure;BME280_temperature;BME280_humidity;BME280_pressure;Samples;Min_cycle;Max_cycle;Signal;HPM_P1;HPM_P2
2023/01/02 00:01:56;;;;;;;70.65;9.70;;;13.40;99.90;;;;;;4883483;29;20173;-86
2023/01/02 00:04:22;;;;;;;70.23;12.07;;;13.50;99.90;;;;;;4900629;29;20527;-86
2023/01/02 00:06:50;;;;;;;76.07;12.80;;;13.60;99.90;;;;;;4900316;29;20208;-86
2023/01/02 00:09:17;;;;;;;72.63;11.07;;;13.60;99.90;;;;;;4900374;29;20201;-87
2023/01/02 00:11:42;;;;;;;68.97;9.27;;;13.70;99.90;;;;;;4883414;29;20426;-86
2023/01/02 00:14:08;;;;;;;68.87;10.47;;;13.70;99.90;;;;;;4900183;29;20407;-86
2023/01/02 00:16:36;;;;;;;67.67;7.40;;;13.70;99.90;;;;;;4883358;29;20317;-86
2023/01/02 00:19:02;;;;;;;74.47;8.40;;;13.80;99.90;;;;;;4900042;29;20305;-86
2023/01/02 00:21:27;;;;;;;69.77;7.37;;;13.80;99.90;;;;;;4883139;29;20525;-86
2023/01/02 00:23:53;;;;;;;74.90;6.70;;;13.80;99.90;;;;;;4899849;29;20162;-87
2023/01/02 00:26:19;;;;;;;70.07;6.77;;;13.80;99.90;;;;;;4900527;29;20166;-86
2023/01/02 00:28:47;;;;;;;68.93;7.60;;;13.80;99.90;;;;;;4899955;29;20166;-86
2023/01/02 00:31:13;;;;;;;68.97;6.60;;;13.90;99.90;;;;;;4899747;29;20209;-86
2023/01/02 00:33:39;;;;;;;69.07;7.13;;;13.80;99.90;;;;;;4899869;29;20466;-86
2023/01/02 00:36:10;;;;;;;70.63;7.20;;;13.90;99.90;;;;;;4899861;29;20399;-86
2023/01/02 00:38:36;;;;;;;77.60;7.97;;;13.80;99.90;;;;;;4900017;29;20181;-86
2023/01/02 00:41:02;;;;;;;71.40;8.17;;;13.80;99.90;;;;;;4899671;29;20493;-86
2023/01/02 00:43:29;;;;;;;71.03;7.80;;;13.80;99.90;;;;;;4882882;29;20414;-86
2023/01/02 00:45:54;;;;;;;73.23;10.20;;;13.80;99.90;;;;;;4883111;29;20426;-86
2023/01/02 00:48:20;;;;;;;69.80;8.70;;;13.80;99.90;;;;;;4882744;29;20464;-86
2023/01/02 00:50:46;;;;;;;70.17;7.77;;;13.80;99.90;;;;;;4899670;29;20212;-86
2023/01/02 00:53:12;;;;;;;75.23;8.37;;;13.70;99.90;;;;;;4882794;29;20422;-86
2023/01/02 00:55:37;;;;;;;71.40;8.23;;;13.70;99.90;;;;;;4899715;29;20902;-86
2023/01/02 00:58:03;;;;;;;69.50;7.23;;;13.70;99.90;;;;;;4899385;29;20179;-86
2023/01/02 01:00:32;;;;;;;68.20;8.10;;;13.60;99.90;;;;;;4882684;29;20250;-86
2023/01/02 01:02:58;;;;;;;71.97;8.82;;;13.70;99.90;;;;;;4899284;29;20507;-86
2023/01/02 01:05:24;;;;;;;68.90;6.70;;;13.70;99.90;;;;;;4882555;29;20181;-86
2023/01/02 01:07:50;;;;;;;70.30;7.50;;;13.60;99.90;;;;;;4883069;29;20441;-87
2023/01/02 01:10:16;;;;;;;72.10;7.30;;;13.70;99.90;;;;;;4882310;29;20450;-87
2023/01/02 01:12:41;;;;;;;71.07;8.07;;;13.70;99.90;;;;;;4882353;29;20173;-87
2023/01/02 01:15:07;;;;;;;71.20;7.50;;;13.70;99.90;;;;;;4899323;29;20169;-87
2023/01/02 01:17:33;;;;;;;71.10;8.33;;;13.70;99.90;;;;;;4899006;29;20170;-86
2023/01/02 01:19:59;;;;;;;71.63;10.07;;;13.70;99.90;;;;;;4882509;29;20522;-86
2023/01/02 01:22:24;;;;;;;68.60;8.20;;;13.70;99.90;;;;;;4899023;29;20682;-88
2023/01/02 01:24:53;;;;;;;71.40;10.70;;;13.70;99.90;;;;;;4899312;29;20669;-86
2023/01/02 01:27:18;;;;;;;71.60;9.40;;;13.70;99.90;;;;;;4882414;29;20188;-86
2023/01/02 01:29:44;;;;;;;70.67;10.90;;;13.70;99.90;;;;;;4881907;29;20465;-87
2023/01/02 01:32:10;;;;;;;71.00;10.43;;;13.70;99.90;;;;;;4882051;29;20178;-87
2023/01/02 01:34:35;;;;;;;74.90;11.07;;;13.70;99.60;;;;;;4881990;29;20285;-87
2023/01/02 01:37:01;;;;;;;66.53;9.37;;;13.80;99.90;;;;;;4881709;29;20666;-87
2023/01/02 01:39:27;;;;;;;71.03;10.17;;;13.80;97.40;;;;;;4881954;29;20252;-87
2023/01/02 01:41:52;;;;;;;74.87;11.70;;;13.70;98.40;;;;;;4898895;29;20173;-87
2023/01/02 01:44:42;;;;;;;75.07;11.10;;;13.80;97.70;;;;;;4898860;29;20178;-87
2023/01/02 01:47:44;;;;;;;72.93;13.50;;;13.70;96.60;;;;;;4881714;29;20166;-87
2023/01/02 01:50:20;;;;;;;72.40;11.07;;;13.80;97.30;;;;;;4881527;29;20461;-86
2023/01/02 01:53:20;;;;;;;76.67;11.07;;;13.70;94.20;;;;;;4881971;29;20225;-86
2023/01/02 01:56:00;;;;;;;69.47;10.07;;;13.70;95.80;;;;;;4842065;29;20406;-87
2023/01/02 01:58:32;;;;;;;73.87;11.93;;;13.70;94.00;;;;;;4881606;29;20445;-87
2023/01/02 02:00:58;;;;;;;72.75;12.05;;;13.70;93.20;;;;;;4881729;29;20999;-87
2023/01/02 02:03:27;;;;;;;75.80;10.17;;;13.80;94.70;;;;;;4881504;29;20273;-86
2023/01/02 02:05:54;;;;;;;74.47;10.30;;;13.80;92.70;;;;;;4898266;29;20418;-86
2023/01/02 02:08:38;;;;;;;77.67;10.33;;;13.80;93.70;;;;;;4898251;29;20774;-87
2023/01/02 02:11:04;;;;;;;76.53;9.70;;;13.90;90.70;;;;;;4881306;29;20538;-87
2023/01/02 02:13:31;;;;;;;72.40;8.37;;;13.90;90.50;;;;;;4881406;29;20418;-87
2023/01/02 02:16:02;;;;;;;71.20;8.53;;;13.80;91.80;;;;;;4898163;29;20406;-87
2023/01/02 02:18:39;;;;;;;68.90;8.30;;;13.80;90.30;;;;;;4898413;29;20409;-87
2023/01/02 02:21:20;;;;;;;72.87;8.90;;;13.90;89.60;;;;;;4881565;29;20446;-87
2023/01/02 02:24:21;;;;;;;71.30;8.85;;;13.90;87.90;;;;;;4881323;29;20442;-87
2023/01/02 02:26:58;;;;;;;73.03;8.70;;;13.90;85.00;;;;;;4860605;29;20186;-87
2023/01/02 02:30:02;;;;;;;73.67;8.50;;;13.90;80.90;;;;;;4897981;29;20426;-86
2023/01/02 02:32:55;;;;;;;71.97;10.97;;;13.90;80.50;;;;;;4898306;29;20493;-87
2023/01/02 02:35:29;;;;;;;68.80;8.40;;;13.90;80.50;;;;;;4881271;29;20430;-86
2023/01/02 02:38:03;;;;;;;74.30;6.80;;;13.90;79.80;;;;;;4898012;29;20386;-86
2023/01/02 02:40:58;;;;;;;72.63;7.43;;;13.90;77.00;;;;;;4897994;29;20941;-87
2023/01/02 02:43:36;;;;;;;68.87;7.47;;;13.80;76.10;;;;;;4847129;29;20840;-87
2023/01/02 02:46:37;;;;;;;79.50;7.00;;;13.80;78.90;;;;;;4881498;29;20446;-87
2023/01/02 02:49:06;;;;;;;83.27;9.93;;;13.80;78.00;;;;;;4888883;29;20417;-87
2023/01/02 02:51:50;;;;;;;69.17;6.93;;;13.80;75.70;;;;;;4902059;29;20438;-87
2023/01/02 02:54:27;;;;;;;71.23;6.40;;;13.80;78.20;;;;;;4885658;29;20398;-87
2023/01/02 02:56:54;;;;;;;68.67;6.20;;;13.80;76.40;;;;;;4885714;29;20477;-87
2023/01/02 02:59:21;;;;;;;70.63;6.47;;;13.80;76.10;;;;;;4884706;29;20516;-87
2023/01/02 03:01:46;;;;;;;75.87;8.00;;;13.70;80.90;;;;;;4901970;29;20443;-87
2023/01/02 03:04:21;;;;;;;72.80;6.03;;;13.70;76.70;;;;;;4902117;29;20440;-87
2023/01/02 03:07:04;;;;;;;68.00;5.90;;;13.70;79.30;;;;;;4901422;29;20225;-87
2023/01/02 03:09:53;;;;;;;70.03;6.77;;;13.70;79.60;;;;;;4901313;29;20453;-87
2023/01/02 03:12:43;;;;;;;68.67;6.50;;;13.60;78.10;;;;;;4885609;29;20747;-87
2023/01/02 03:15:43;;;;;;;72.60;8.80;;;13.60;80.60;;;;;;4884997;29;20451;-87
2023/01/02 03:18:18;;;;;;;72.10;8.57;;;13.60;82.70;;;;;;4884366;29;20421;-87
2023/01/02 03:20:55;;;;;;;68.43;9.03;;;13.60;81.80;;;;;;4884413;29;20441;-87
2023/01/02 03:23:24;;;;;;;74.63;8.90;;;13.60;82.10;;;;;;4901459;29;20401;-87
2023/01/02 03:25:51;;;;;;;73.47;9.10;;;13.60;85.00;;;;;;4884139;29;20834;-87
2023/01/02 03:28:20;;;;;;;78.20;10.87;;;13.60;81.90;;;;;;4901101;29;20937;-87
2023/01/02 03:30:50;;;;;;;70.63;8.00;;;13.50;85.70;;;;;;4901180;29;20457;-87
2023/01/02 03:33:23;;;;;;;71.27;8.03;;;13.50;84.80;;;;;;4901010;29;20192;-87
2023/01/02 03:36:01;;;;;;;70.13;6.90;;;13.50;84.40;;;;;;4901136;29;20450;-87
2023/01/02 03:38:34;;;;;;;71.27;6.50;;;13.50;83.50;;;;;;4883881;29;20429;-87
2023/01/02 03:41:24;;;;;;;72.27;7.47;;;13.60;86.80;;;;;;4900876;29;20512;-87
2023/01/02 03:43:52;;;;;;;71.90;6.93;;;13.50;82.90;;;;;;4900789;29;20763;-87
2023/01/02 03:46:36;;;;;;;70.18;6.45;;;13.50;82.30;;;;;;4883945;29;20174;-87
2023/01/02 03:49:17;;;;;;;71.07;8.77;;;13.50;82.80;;;;;;4900731;29;20523;-87
2023/01/02 03:51:43;;;;;;;73.00;9.47;;;13.50;85.70;;;;;;4900996;29;20394;-87
2023/01/02 03:54:10;;;;;;;71.70;8.90;;;13.40;84.50;;;;;;4883878;29;20406;-87
2023/01/02 03:56:35;;;;;;;73.03;8.20;;;13.40;81.70;;;;;;4883795;29;20783;-87
2023/01/02 03:59:10;;;;;;;68.83;8.50;;;13.50;83.40;;;;;;4900011;29;20162;-87
2023/01/02 04:01:47;;;;;;;67.43;7.50;;;13.40;81.20;;;;;;4884355;29;20180;-87
2023/01/02 04:04:35;;;;;;;67.88;6.57;;;13.50;81.30;;;;;;4883953;29;20405;-87
2023/01/02 04:07:05;;;;;;;72.93;6.32;;;13.50;77.70;;;;;;4883653;29;20213;-87
2023/01/02 04:09:33;;;;;;;68.37;5.83;;;13.50;80.60;;;;;;4883577;29;20551;-87
2023/01/02 04:12:04;;;;;;;67.67;6.10;;;13.50;80.60;;;;;;4883815;29;20802;-87
2023/01/02 04:14:59;;;;;;;74.90;6.40;;;13.50;77.70;;;;;;4900847;29;20386;-87
2023/01/02 04:17:28;;;;;;;71.40;5.67;;;13.50;77.40;;;;;;4883608;29;20629;-87
2023/01/02 04:20:01;;;;;;;68.87;6.17;;;13.50;77.20;;;;;;4883406;29;20525;-87
2023/01/02 04:22:35;;;;;;;71.00;5.50;;;13.50;75.00;;;;;;4883600;29;20410;-86
2023/01/02 04:25:09;;;;;;;73.00;7.40;;;13.50;72.10;;;;;;4900200;29;20750;-87
2023/01/02 04:28:02;;;;;;;69.93;5.82;;;13.50;71.20;;;;;;4900600;29;20457;-87
2023/01/02 04:30:34;;;;;;;74.20;6.47;;;13.60;68.40;;;;;;4883162;29;20582;-87
2023/01/02 04:33:05;;;;;;;73.00;6.70;;;13.60;70.20;;;;;;4899968;29;20402;-87
2023/01/02 04:35:33;;;;;;;70.82;6.32;;;13.60;66.60;;;;;;4884221;29;20744;-87
2023/01/02 04:38:10;;;;;;;78.80;5.80;;;13.60;66.00;;;;;;4950997;23;20169;-84
2023/01/02 04:40:37;;;;;;;72.33;5.07;;;13.60;63.50;;;;;;4887446;29;20459;-84
2023/01/02 04:43:11;;;;;;;68.70;5.60;;;13.70;64.60;;;;;;4887244;29;20409;-84
2023/01/02 04:45:36;;;;;;;72.10;6.13;;;13.70;59.90;;;;;;4886519;29;20395;-83
2023/01/02 04:48:02;;;;;;;68.40;5.50;;;13.70;59.40;;;;;;4887674;29;20433;-84
2023/01/02 04:50:30;;;;;;;73.33;5.87;;;13.70;55.90;;;;;;4886785;29;20574;-84
2023/01/02 04:52:56;;;;;;;73.07;5.60;;;13.80;55.00;;;;;;4886258;29;20279;-85
2023/01/02 04:55:24;;;;;;;71.30;5.17;;;13.80;59.00;;;;;;4885149;29;20523;-86
2023/01/02 04:57:50;;;;;;;71.70;5.67;;;13.80;53.50;;;;;;4884518;29;20223;-85
2023/01/02 05:00:16;;;;;;;77.23;6.63;;;13.80;50.90;;;;;;4887275;29;20835;-85
2023/01/02 05:02:41;;;;;;;68.37;5.63;;;13.70;51.30;;;;;;4886043;29;20535;-86
2023/01/02 05:05:08;;;;;;;69.77;5.10;;;13.70;52.30;;;;;;4886514;29;20222;-86
2023/01/02 05:07:34;;;;;;;70.03;5.53;;;13.70;54.10;;;;;;4886317;29;20174;-85
2023/01/02 05:10:00;;;;;;;71.70;5.90;;;13.80;52.00;;;;;;4885643;29;20978;-84
2023/01/02 05:12:26;;;;;;;72.90;5.70;;;13.70;50.50;;;;;;4886410;29;20466;-84
2023/01/02 05:14:51;;;;;;;69.10;5.60;;;13.70;51.40;;;;;;4886728;29;20756;-85
2023/01/02 05:17:17;;;;;;;72.33;5.67;;;13.70;51.80;;;;;;4885411;29;20175;-86
2023/01/02 05:19:43;;;;;;;71.17;6.03;;;13.80;48.90;;;;;;4885043;29;20194;-85
2023/01/02 05:24:58;;;;;;;71.50;5.77;;;13.80;50.30;;;;;;4886779;29;20166;-86
2023/01/02 05:27:24;;;;;;;71.80;5.73;;;13.80;49.80;;;;;;4886725;29;20402;-85
2023/01/02 05:29:50;;;;;;;75.73;6.60;;;13.90;46.80;;;;;;4884822;29;20202;-85
2023/01/02 05:32:15;;;;;;;75.67;5.40;;;13.80;48.80;;;;;;4885104;29;20171;-85
2023/01/02 05:34:41;;;;;;;68.23;5.53;;;13.80;49.20;;;;;;4884937;29;20170;-85
2023/01/02 05:37:06;;;;;;;67.87;5.60;;;13.80;52.40;;;;;;4885432;29;20246;-85
2023/01/02 05:39:32;;;;;;;69.90;5.93;;;13.80;50.60;;;;;;4884690;29;20210;-85
2023/01/02 05:41:58;;;;;;;70.30;6.03;;;13.80;51.30;;;;;;4886332;29;20174;-85
2023/01/02 05:44:23;;;;;;;68.37;6.00;;;13.90;51.30;;;;;;4884336;29;20262;-85
2023/01/02 05:46:52;;;;;;;76.57;5.80;;;13.90;53.80;;;;;;4885161;29;20190;-85
2023/01/02 05:49:18;;;;;;;70.30;6.07;;;13.90;54.10;;;;;;4885407;29;20171;-86
2023/01/02 05:51:44;;;;;;;73.67;5.63;;;13.90;54.90;;;;;;4886061;29;20741;-85
2023/01/02 05:54:09;;;;;;;72.77;6.27;;;13.90;55.90;;;;;;4885033;29;20166;-85
2023/01/02 05:56:35;;;;;;;71.83;5.60;;;13.80;57.50;;;;;;4884185;29;20239;-85
2023/01/02 05:59:01;;;;;;;69.80;7.77;;;13.80;59.20;;;;;;4885928;29;20646;-85
2023/01/02 06:01:28;;;;;;;76.10;8.00;;;13.80;59.70;;;;;;4885395;29;20190;-85
2023/01/02 06:03:56;;;;;;;76.00;7.53;;;13.80;64.40;;;;;;4885708;29;20606;-85
2023/01/02 06:06:34;;;;;;;73.38;6.80;;;13.80;65.20;;;;;;4885124;29;20411;-85
2023/01/02 06:09:07;;;;;;;78.23;8.67;;;13.80;66.60;;;;;;4885620;29;20177;-85
2023/01/02 06:11:33;;;;;;;75.93;7.93;;;13.80;66.30;;;;;;4885691;29;20391;-85
2023/01/02 06:13:59;;;;;;;71.50;8.87;;;13.70;67.70;;;;;;4885200;29;20213;-85
2023/01/02 06:16:25;;;;;;;70.70;7.30;;;13.70;72.00;;;;;;4886023;29;20403;-85
2023/01/02 06:18:51;;;;;;;75.50;8.07;;;13.70;69.80;;;;;;4885548;29;20411;-85
2023/01/02 06:21:21;;;;;;;71.20;7.50;;;13.70;71.10;;;;;;4885105;29;20190;-85
2023/01/02 06:23:48;;;;;;;74.32;9.30;;;13.70;72.00;;;;;;4883854;29;21085;-85
2023/01/02 06:26:20;;;;;;;73.13;8.27;;;13.70;72.50;;;;;;4885502;29;20185;-85
2023/01/02 06:28:49;;;;;;;71.57;9.90;;;13.60;75.50;;;;;;4885729;29;20534;-85
2023/01/02 06:31:17;;;;;;;70.60;9.80;;;13.60;75.20;;;;;;4885469;29;20217;-85
2023/01/02 06:33:42;;;;;;;70.50;10.10;;;13.60;73.80;;;;;;4885102;29;20403;-85
2023/01/02 06:36:16;;;;;;;73.60;9.90;;;13.60;74.80;;;;;;4885116;29;20177;-85
2023/01/02 06:38:42;;;;;;;75.13;10.37;;;13.60;74.50;;;;;;4883422;29;20269;-85
2023/01/02 06:41:08;;;;;;;74.53;10.63;;;13.60;77.20;;;;;;4884439;29;20423;-85
2023/01/02 06:43:36;;;;;;;74.60;9.43;;;13.60;78.40;;;;;;4885074;29;20217;-85
2023/01/02 06:46:03;;;;;;;72.53;7.93;;;13.60;78.70;;;;;;4884895;29;20430;-85
2023/01/02 06:48:33;;;;;;;74.13;7.85;;;13.60;80.90;;;;;;4884453;29;20406;-85
2023/01/02 06:51:02;;;;;;;68.53;8.13;;;13.70;77.40;;;;;;4885272;29;20574;-85
2023/01/02 06:53:28;;;;;;;70.63;9.87;;;13.60;75.30;;;;;;4885184;29;20411;-85
2023/01/02 06:55:58;;;;;;;81.80;12.03;;;13.60;79.30;;;;;;4884999;29;20415;-85
2023/01/02 06:58:25;;;;;;;78.37;8.60;;;13.50;79.10;;;;;;4885246;29;20742;-86
2023/01/02 07:00:51;;;;;;;73.20;8.60;;;13.60;80.80;;;;;;4883914;29;20443;-86
2023/01/02 07:03:17;;;;;;;70.53;9.80;;;13.50;83.10;;;;;;4885042;29;20415;-85
2023/01/02 07:05:43;;;;;;;71.93;10.07;;;13.50;85.00;;;;;;4884700;29;20179;-84
2023/01/02 07:08:10;;;;;;;74.47;9.80;;;13.50;86.10;;;;;;4885670;29;20170;-84
2023/01/02 07:10:35;;;;;;;68.70;10.25;;;13.50;90.30;;;;;;4885837;29;20461;-83
2023/01/02 07:13:01;;;;;;;71.20;10.07;;;13.50;91.50;;;;;;4884856;29;20166;-85
2023/01/02 07:15:27;;;;;;;71.60;9.03;;;13.50;92.80;;;;;;4886362;29;20261;-85
2023/01/02 07:17:52;;;;;;;79.47;9.33;;;13.40;92.50;;;;;;4886093;29;20167;-85
2023/01/02 07:20:18;;;;;;;71.37;9.83;;;13.40;93.50;;;;;;4885297;29;20438;-85
2023/01/02 07:22:51;;;;;;;72.80;8.97;;;13.50;93.80;;;;;;4885510;29;20647;-85
2023/01/02 07:25:17;;;;;;;71.93;8.43;;;13.40;94.40;;;;;;4885648;29;20177;-85
2023/01/02 07:27:43;;;;;;;74.65;8.18;;;13.40;95.20;;;;;;4885363;29;20414;-84
2023/01/02 07:30:09;;;;;;;69.60;7.27;;;13.40;96.20;;;;;;4883751;29;20210;-85
2023/01/02 07:32:35;;;;;;;77.37;9.33;;;13.40;95.90;;;;;;4885289;29;20171;-84
2023/01/02 07:35:01;;;;;;;72.67;9.13;;;13.40;95.70;;;;;;4888306;29;20403;-84
2023/01/02 07:37:58;;;;;;;;;;;;;;;;;;;;;
2023/01/02 07:40:48;;;;;;;69.00;8.70;;;13.40;96.70;;;;;;4889527;29;20297;-85
2023/01/02 07:43:13;;;;;;;70.70;9.90;;;13.30;97.30;;;;;;4889562;29;20387;-84
2023/01/02 07:45:49;;;;;;;71.60;9.10;;;13.30;97.20;;;;;;4890634;29;20182;-85
2023/01/02 07:48:15;;;;;;;70.70;7.63;;;13.30;97.40;;;;;;4889336;29;20262;-85
2023/01/02 07:50:44;;;;;;;69.23;9.70;;;13.30;97.90;;;;;;4888926;29;20230;-85
2023/01/02 07:53:13;;;;;;;69.95;8.80;;;13.30;98.40;;;;;;4888565;29;20234;-85
2023/01/02 07:55:41;;;;;;;73.07;10.25;;;13.20;99.90;;;;;;4887908;29;20170;-84
2023/01/02 07:58:07;;;;;;;72.13;10.23;;;13.30;99.90;;;;;;4887514;29;20174;-85
2023/01/02 08:00:32;;;;;;;75.73;8.23;;;13.30;99.90;;;;;;4888686;29;20187;-85
2023/01/02 08:03:00;;;;;;;73.40;11.50;;;13.30;99.90;;;;;;4888036;29;20337;-86
2023/01/02 08:05:25;;;;;;;80.35;11.00;;;13.20;99.90;;;;;;4886380;29;20635;-85
2023/01/02 08:07:51;;;;;;;70.17;8.23;;;13.20;99.90;;;;;;4888152;29;20253;-85
2023/01/02 08:10:16;;;;;;;72.50;12.20;;;13.20;99.90;;;;;;4887289;29;20207;-85
2023/01/02 08:12:42;;;;;;;73.10;10.47;;;13.20;99.90;;;;;;4887236;29;20227;-85
2023/01/02 08:15:08;;;;;;;70.97;11.30;;;13.20;99.90;;;;;;4887560;29;20182;-86
2023/01/02 08:17:34;;;;;;;74.00;13.67;;;13.20;99.90;;;;;;4887703;29;20673;-85
2023/01/02 08:19:59;;;;;;;74.23;13.60;;;13.20;99.90;;;;;;4888364;29;20435;-85
2023/01/02 08:22:25;;;;;;;69.50;11.63;;;13.20;99.90;;;;;;4888203;29;20256;-86
2023/01/02 08:24:51;;;;;;;76.03;11.73;;;13.30;99.90;;;;;;4889010;29;20177;-86
2023/01/02 08:27:17;;;;;;;79.30;12.73;;;13.20;99.90;;;;;;4887920;29;20171;-86
2023/01/02 08:29:42;;;;;;;71.27;12.10;;;13.10;99.90;;;;;;4892266;29;20206;-85
2023/01/02 08:32:08;;;;;;;68.93;12.70;;;13.10;99.90;;;;;;4888180;29;20483;-86
2023/01/02 08:34:34;;;;;;;72.13;14.70;;;13.00;99.90;;;;;;4887844;29;20678;-86
2023/01/02 08:37:00;;;;;;;73.50;17.57;;;13.00;99.90;;;;;;4887631;29;20155;-86
2023/01/02 08:39:25;;;;;;;78.63;20.50;;;13.00;99.90;;;;;;4885640;29;20435;-86
2023/01/02 08:41:51;;;;;;;74.67;17.87;;;13.00;99.90;;;;;;4885674;29;20177;-87
2023/01/02 08:44:17;;;;;;;78.10;19.57;;;13.00;99.90;;;;;;4886822;29;20177;-86
2023/01/02 08:46:42;;;;;;;73.60;18.70;;;12.90;99.90;;;;;;4887044;29;20171;-86
2023/01/02 08:49:08;;;;;;;74.23;18.67;;;12.90;99.90;;;;;;4886766;29;20249;-86
2023/01/02 08:51:34;;;;;;;72.87;17.77;;;13.00;99.90;;;;;;4885886;29;20174;-87
2023/01/02 08:54:09;;;;;;;73.00;14.77;;;13.00;99.90;;;;;;4887406;29;20470;-86
2023/01/02 08:56:36;;;;;;;72.20;14.60;;;12.90;99.90;;;;;;4886620;29;20213;-86
2023/01/02 08:59:05;;;;;;;73.60;13.57;;;12.80;99.90;;;;;;4887278;29;20403;-85
2023/01/02 09:01:32;;;;;;;69.22;10.57;;;12.80;99.90;;;;;;4885448;29;20194;-87
2023/01/02 09:03:58;;;;;;;70.85;10.75;;;12.80;99.90;;;;;;4884449;29;20246;-87
2023/01/02 09:06:26;;;;;;;68.57;12.67;;;12.80;99.90;;;;;;4885321;29;20192;-87
2023/01/02 09:08:55;;;;;;;67.22;11.80;;;12.90;99.90;;;;;;4885512;29;20422;-86
2023/01/02 09:11:26;;;;;;;66.93;8.88;;;12.90;99.90;;;;;;4886678;29;20689;-87
2023/01/02 09:13:52;;;;;;;71.55;12.63;;;12.80;99.90;;;;;;4884797;29;20172;-87
2023/01/02 09:16:18;;;;;;;67.60;10.18;;;12.80;99.90;;;;;;4886541;29;20170;-88
2023/01/02 09:21:41;;;;;;;69.78;14.40;;;12.80;99.90;;;;;;5162908;23;20505;-85
2023/01/02 09:24:12;;;;;;;67.05;9.70;;;12.80;99.90;;;;;;4925619;29;20205;-85
2023/01/02 09:26:44;;;;;;;66.35;9.13;;;12.70;99.90;;;;;;4909351;29;20229;-86
2023/01/02 09:29:16;;;;;;;66.88;7.60;;;12.70;99.90;;;;;;4925372;29;20153;-86
2023/01/02 09:31:42;;;;;;;65.93;9.20;;;12.70;99.90;;;;;;4907977;29;20660;-86
2023/01/02 09:34:07;;;;;;;67.97;8.17;;;12.70;99.90;;;;;;4924504;29;20162;-86
2023/01/02 09:36:33;;;;;;;65.70;7.93;;;12.70;99.90;;;;;;4923709;29;20225;-86
2023/01/02 09:39:00;;;;;;;66.17;8.23;;;12.70;99.90;;;;;;4923906;29;20169;-86
2023/01/02 09:41:51;;;;;;;65.93;8.02;;;12.70;99.90;;;;;;4924945;29;20190;-86
2023/01/02 09:44:22;;;;;;;69.25;8.35;;;12.70;99.90;;;;;;4907190;29;20165;-85
2023/01/02 09:47:04;;;;;;;65.50;6.90;;;12.70;99.90;;;;;;4924589;29;20158;-84
2023/01/02 09:49:42;;;;;;;67.57;7.30;;;12.80;99.90;;;;;;4910582;29;20629;-86
2023/01/02 09:52:14;;;;;;;67.95;7.65;;;12.70;99.90;;;;;;4926981;29;20441;-86
2023/01/02 09:54:40;;;;;;;65.37;8.20;;;12.70;99.90;;;;;;4905833;29;20204;-85
2023/01/02 09:57:27;;;;;;;66.20;9.20;;;12.80;99.90;;;;;;4906111;29;20409;-86
2023/01/02 10:00:01;;;;;;;65.88;9.43;;;12.80;99.90;;;;;;4923167;29;20225;-86
2023/01/02 10:03:03;;;;;;;66.40;8.90;;;12.90;99.90;;;;;;4923275;29;20169;-86
2023/01/02 10:06:06;;;;;;;70.47;10.57;;;12.80;99.90;;;;;;4923699;29;20165;-87
2023/01/02 10:08:49;;;;;;;67.43;12.07;;;12.80;99.90;;;;;;4907340;29;20183;-86
2023/01/02 10:11:33;;;;;;;67.63;10.00;;;12.80;99.90;;;;;;4906358;29;20232;-86
2023/01/02 10:14:06;;;;;;;65.85;9.95;;;12.70;99.90;;;;;;4907010;29;20178;-86
2023/01/02 10:16:37;;;;;;;66.00;9.70;;;12.70;99.90;;;;;;4906499;29;20162;-87
2023/01/02 10:19:11;;;;;;;67.32;10.43;;;12.60;99.90;;;;;;4923644;29;20208;-85
2023/01/02 10:21:38;;;;;;;70.15;10.90;;;12.60;99.90;;;;;;4906782;29;20659;-86
2023/01/02 10:24:12;;;;;;;68.22;12.63;;;12.70;99.90;;;;;;4924109;29;20166;-86
2023/01/02 10:26:44;;;;;;;69.88;13.27;;;12.70;99.90;;;;;;4924357;29;20160;-86
2023/01/02 10:29:22;;;;;;;67.00;11.52;;;12.70;99.90;;;;;;4923786;29;20153;-85
2023/01/02 10:31:50;;;;;;;67.22;11.48;;;12.60;99.90;;;;;;4924042;29;20168;-86
2023/01/02 10:34:19;;;;;;;66.55;12.02;;;12.60;99.90;;;;;;4923990;29;20169;-86
2023/01/02 10:36:46;;;;;;;66.72;10.93;;;12.60;99.90;;;;;;4923296;29;20161;-86
2023/01/02 10:39:21;;;;;;;66.90;10.88;;;12.60;99.90;;;;;;4906433;29;20177;-85
2023/01/02 10:41:50;;;;;;;67.88;10.80;;;12.60;99.90;;;;;;4923191;29;20219;-86
2023/01/02 10:44:22;;;;;;;71.60;12.40;;;12.60;99.90;;;;;;4905847;29;20169;-86
2023/01/02 10:46:48;;;;;;;68.72;10.27;;;12.60;99.90;;;;;;4906019;29;20169;-87
2023/01/02 10:49:18;;;;;;;67.17;11.70;;;12.50;99.90;;;;;;4921743;29;20173;-87
2023/01/02 10:51:52;;;;;;;66.88;10.60;;;12.50;99.90;;;;;;4921761;29;20158;-87
2023/01/02 10:54:17;;;;;;;66.88;9.25;;;12.50;99.90;;;;;;4921371;29;20154;-87
2023/01/02 10:56:48;;;;;;;67.70;10.07;;;12.40;99.90;;;;;;4922393;29;20510;-87
2023/01/02 10:59:24;;;;;;;67.68;9.73;;;12.40;99.90;;;;;;4904181;29;20162;-87
2023/01/02 11:01:56;;;;;;;66.82;8.38;;;12.40;99.90;;;;;;4908669;29;20158;-86
2023/01/02 11:04:29;;;;;;;66.67;9.83;;;12.50;99.90;;;;;;4923900;29;20157;-87
2023/01/02 11:07:01;;;;;;;67.43;10.43;;;12.40;99.90;;;;;;4922656;29;20389;-88
2023/01/02 11:09:32;;;;;;;66.95;9.60;;;12.50;99.90;;;;;;4924620;29;20201;-86
2023/01/02 11:12:08;;;;;;;66.55;9.00;;;12.50;99.90;;;;;;4926839;29;20164;-87
2023/01/02 11:14:37;;;;;;;67.35;10.82;;;12.50;99.90;;;;;;4925770;29;20236;-86
2023/01/02 11:17:12;;;;;;;66.18;7.70;;;12.50;99.90;;;;;;4925399;29;20637;-87
2023/01/02 11:19:43;;;;;;;65.60;8.13;;;12.60;99.90;;;;;;4926466;29;20216;-87
2023/01/02 11:22:11;;;;;;;66.95;9.13;;;12.50;99.90;;;;;;4909780;29;20248;-86
2023/01/02 11:24:58;;;;;;;67.63;10.13;;;12.70;99.90;;;;;;4926977;29;20227;-87
2023/01/02 11:27:33;;;;;;;65.93;10.38;;;12.60;99.90;;;;;;4926853;29;20162;-86
2023/01/02 11:30:00;;;;;;;67.40;9.63;;;12.60;99.90;;;;;;4927236;29;20200;-86
2023/01/02 11:32:37;;;;;;;66.82;8.70;;;12.60;99.90;;;;;;4910090;29;20208;-86
2023/01/02 11:35:04;;;;;;;67.68;10.63;;;12.60;99.90;;;;;;4908911;29;20173;-86
2023/01/02 11:37:30;;;;;;;67.95;9.02;;;12.70;99.90;;;;;;4926473;29;20157;-87
2023/01/02 11:40:05;;;;;;;67.87;9.97;;;12.70;99.90;;;;;;4926286;29;20200;-85
2023/01/02 11:45:47;;;;;;;66.38;8.38;;;12.70;99.90;;;;;;4905363;29;20200;-86
2023/01/02 11:48:21;;;;;;;66.50;8.90;;;12.60;99.90;;;;;;4926555;29;20178;-86
2023/01/02 11:50:48;;;;;;;67.30;11.00;;;12.60;99.90;;;;;;4909566;29;20197;-86
2023/01/02 11:53:22;;;;;;;67.95;11.90;;;12.70;99.90;;;;;;4910390;29;20413;-86
2023/01/02 11:56:21;;;;;;;67.47;11.05;;;12.60;99.90;;;;;;4926924;29;20150;-86
2023/01/02 11:59:02;;;;;;;68.20;11.07;;;12.50;99.90;;;;;;4926235;29;20660;-86
2023/01/02 12:02:05;;;;;;;67.63;12.48;;;12.50;99.90;;;;;;4909512;29;20194;-86
2023/01/02 12:04:31;;;;;;;68.82;13.25;;;12.50;99.90;;;;;;4923151;29;20185;-87
2023/01/02 12:07:10;;;;;;;72.00;13.63;;;12.40;99.90;;;;;;4908461;29;20200;-87
2023/01/02 12:09:46;;;;;;;67.88;12.40;;;12.40;99.90;;;;;;4925595;29;20193;-87
2023/01/02 12:12:25;;;;;;;67.53;11.05;;;12.30;99.90;;;;;;4909029;29;20157;-87
2023/01/02 12:15:09;;;;;;;68.22;12.25;;;12.30;99.90;;;;;;4909015;29;20209;-87
2023/01/02 12:17:41;;;;;;;69.00;14.98;;;12.40;99.90;;;;;;4907032;29;20166;-87
2023/01/02 12:20:28;;;;;;;68.63;13.10;;;12.40;99.90;;;;;;4924083;29;20775;-86
2023/01/02 12:23:12;;;;;;;67.95;12.30;;;12.40;99.90;;;;;;4906877;29;20265;-87
2023/01/02 12:25:56;;;;;;;67.60;14.45;;;12.30;99.90;;;;;;4925427;29;20157;-89
2023/01/02 12:28:55;;;;;;;68.35;15.23;;;12.40;99.90;;;;;;4910150;29;20260;-86
2023/01/02 12:31:26;;;;;;;68.82;12.02;;;12.20;99.90;;;;;;4868185;29;20262;-86
2023/01/02 12:33:55;;;;;;;67.20;14.07;;;12.10;99.90;;;;;;4926792;29;20633;-87
2023/01/02 12:36:23;;;;;;;68.63;14.38;;;12.20;99.90;;;;;;4908213;29;20589;-86
2023/01/02 12:39:09;;;;;;;67.20;13.27;;;12.20;99.90;;;;;;4925829;29;20154;-86
2023/01/02 12:41:54;;;;;;;68.43;16.02;;;12.20;99.90;;;;;;4916474;29;20208;-85
2023/01/02 12:44:24;;;;;;;68.55;16.13;;;12.20;99.90;;;;;;4928095;29;20177;-86
2023/01/02 12:47:32;;;;;;;68.97;17.52;;;12.20;99.90;;;;;;4925786;29;20225;-85
2023/01/02 12:49:58;;;;;;;68.18;15.18;;;12.30;99.90;;;;;;4897412;29;20209;-87
2023/01/02 12:52:38;;;;;;;70.40;17.97;;;12.30;99.90;;;;;;4924241;29;20603;-86
2023/01/02 12:55:10;;;;;;;69.55;15.48;;;12.40;99.90;;;;;;4924294;29;20178;-86
2023/01/02 12:58:00;;;;;;;67.55;16.05;;;12.30;99.90;;;;;;4924354;29;20146;-86
2023/01/02 13:00:50;;;;;;;67.57;13.55;;;12.30;99.90;;;;;;4906896;29;20201;-87
2023/01/02 13:03:46;;;;;;;67.00;14.75;;;12.30;99.90;;;;;;4925122;29;20192;-86
2023/01/02 13:06:38;;;;;;;66.90;13.45;;;12.10;99.90;;;;;;4924586;29;20157;-85